Time;durP1;ratioP1;P1;durP2;ratioP2;P2;SDS_P1;SDS_P2;PMS_P1;PMS_P2;Temp;Humidity;BMP_temperature;BMP_pressure;BME280_temperature;BME280_humidity;BME280_pressure;Samples;Min_cycle;Max_cycle;Signal;HPM_P1;HPM_P2
2021/10/01 00:00:35;;;;;;;6.35;5.75;;;;;;;17.11;48.22;101379.12;1833051;77;21525;-60
2021/10/01 00:03:02;;;;;;;7.10;6.08;;;;;;;17.09;48.21;101379.31;1812353;77;21032;-61
2021/10/01 00:05:31;;;;;;;6.33;5.45;;;;;;;17.09;48.19;101374.42;1807527;77;21551;-60
2021/10/01 00:07:58;;;;;;;6.37;5.78;;;;;;;17.07;48.20;101375.97;1838935;77;21205;-60
2021/10/01 00:10:27;;;;;;;6.03;5.50;;;;;;;17.07;48.20;101372.42;1812580;77;21512;-61
2021/10/01 00:12:53;;;;;;;7.08;5.47;;;;;;;17.05;48.18;101373.92;1810126;77;20992;-61
2021/10/01 00:15:21;;;;;;;6.03;5.42;;;;;;;17.05;48.18;101374.44;1834198;76;21481;-61
2021/10/01 00:17:48;;;;;;;6.97;6.28;;;;;;;17.03;48.17;101363.86;1818160;76;21016;-60
2021/10/01 00:20:16;;;;;;;6.40;5.72;;;;;;;17.03;48.16;101363.03;1825902;77;22027;-62
2021/10/01 00:22:42;;;;;;;6.45;5.83;;;;;;;17.03;48.18;101360.34;1820817;77;21030;-60
2021/10/01 00:25:11;;;;;;;6.00;5.40;;;;;;;17.01;48.15;101357.00;1815545;77;21005;-60
2021/10/01 00:27:39;;;;;;;6.58;5.53;;;;;;;17.01;48.17;101363.70;1795032;76;21529;-61
2021/10/01 00:30:08;;;;;;;5.90;5.40;;;;;;;16.99;48.15;101359.84;1808044;77;21186;-59
2021/10/01 00:32:35;;;;;;;6.72;6.00;;;;;;;16.99;48.14;101360.36;1813878;77;21093;-60
2021/10/01 00:35:02;;;;;;;7.22;6.53;;;;;;;16.97;48.17;101365.06;1813969;77;21040;-59
2021/10/01 00:37:29;;;;;;;6.47;5.58;;;;;;;16.95;48.16;101365.23;1830854;77;21073;-60
2021/10/01 00:39:56;;;;;;;7.05;6.37;;;;;;;16.95;48.13;101364.40;1825431;77;21565;-59
2021/10/01 00:42:22;;;;;;;6.10;5.45;;;;;;;16.94;48.15;101367.59;1821346;77;21080;-59
2021/10/01 00:44:49;;;;;;;6.92;6.22;;;;;;;16.93;48.14;101362.39;1815989;77;21068;-60
2021/10/01 00:47:16;;;;;;;6.22;5.67;;;;;;;16.92;48.17;101362.91;1815077;77;21604;-60
2021/10/01 00:49:43;;;;;;;7.20;6.45;;;;;;;16.92;48.14;101361.56;1808452;77;21625;-61
2021/10/01 00:52:11;;;;;;;7.03;6.30;;;;;;;16.90;48.14;101355.49;1799080;77;21026;-60
2021/10/01 00:54:38;;;;;;;6.85;6.15;;;;;;;16.90;48.12;101356.84;1820226;77;21044;-60
2021/10/01 00:57:05;;;;;;;6.72;6.10;;;;;;;16.88;48.14;101354.34;1830243;77;21375;-60
2021/10/01 00:59:33;;;;;;;6.80;6.15;;;;;;;16.88;48.12;101357.52;1817540;77;21053;-61
2021/10/01 01:02:03;;;;;;;6.97;6.37;;;;;;;16.88;48.10;101356.17;1811316;77;21513;-60
2021/10/01 01:04:30;;;;;;;6.35;5.75;;;;;;;16.86;48.10;101358.19;1809511;77;21077;-59
2021/10/01 01:07:17;;;;;;;6.42;5.62;;;;;;;16.85;48.11;101357.88;1838645;76;21634;-60
2021/10/01 01:10:16;;;;;;;6.28;5.67;;;;;;;16.84;48.13;101357.52;1819827;76;21301;-60
2021/10/01 01:13:26;;;;;;;6.50;5.90;;;;;;;16.82;48.11;101352.83;1797854;78;21619;-61
2021/10/01 01:15:59;;;;;;;7.00;5.87;;;;;;;16.80;48.11;101350.79;1789474;78;20997;-60
2021/10/01 01:18:32;;;;;;;6.62;6.03;;;;;;;16.76;48.15;101348.95;1760909;79;21006;-60
2021/10/01 01:20:59;;;;;;;7.35;6.58;;;;;;;16.75;48.17;101351.31;1783403;77;21076;-60
2021/10/01 01:23:57;;;;;;;6.67;6.03;;;;;;;16.74;48.17;101348.79;1801539;77;21590;-60
2021/10/01 01:27:00;;;;;;;7.03;6.35;;;;;;;16.74;48.16;101346.11;1807136;78;21502;-60
2021/10/01 01:30:00;;;;;;;6.28;5.67;;;;;;;16.70;48.18;101345.09;1826799;77;21057;-60
2021/10/01 01:32:27;;;;;;;6.42;5.83;;;;;;;16.68;48.21;101343.59;1784056;77;21529;-59
2021/10/01 01:35:05;;;;;;;7.25;5.97;;;;;;;16.66;48.22;101344.27;1811603;77;21588;-62
2021/10/01 01:37:41;;;;;;;6.67;6.08;;;;;;;16.64;48.25;101346.28;1806985;77;21083;-61
2021/10/01 01:40:09;;;;;;;7.22;6.50;;;;;;;16.64;48.24;101347.11;1800863;77;21005;-60
2021/10/01 01:42:39;;;;;;;7.30;6.42;;;;;;;16.64;48.25;101340.92;1821028;77;21045;-60
2021/10/01 01:45:08;;;;;;;6.70;6.00;;;;;;;16.62;48.22;101344.27;1790704;78;21564;-60
2021/10/01 01:47:35;;;;;;;7.10;6.40;;;;;;;16.62;48.24;101349.64;1821965;77;21006;-59
2021/10/01 01:50:05;;;;;;;7.55;6.85;;;;;;;16.60;48.24;101346.29;1837847;76;21526;-60
2021/10/01 01:52:34;;;;;;;6.87;6.08;;;;;;;16.61;48.23;101354.18;1802176;78;21036;-60
2021/10/01 01:55:01;;;;;;;7.30;6.62;;;;;;;16.60;48.21;101351.14;1814024;78;21060;-59
2021/10/01 01:57:29;;;;;;;6.67;6.05;;;;;;;16.60;48.21;101351.66;1811403;77;21556;-60
2021/10/01 01:59:57;;;;;;;7.35;6.65;;;;;;;16.58;48.20;101349.14;1791377;78;21048;-60
2021/10/01 02:02:27;;;;;;;6.92;6.22;;;;;;;16.58;48.21;101350.48;1804284;77;21121;-60
2021/10/01 02:04:54;;;;;;;8.63;6.25;;;;;;;16.57;48.20;101348.78;1802202;78;21470;-60
2021/10/01 02:07:21;;;;;;;7.05;6.35;;;;;;;16.57;48.19;101350.12;1831706;77;21092;-60
2021/10/01 02:09:49;;;;;;;7.00;5.85;;;;;;;16.56;48.16;101345.78;1805145;77;21563;-63
2021/10/01 02:12:16;;;;;;;8.50;6.97;;;;;;;16.57;48.16;101347.95;1805562;77;21056;-60
2021/10/01 02:14:46;;;;;;;7.47;6.83;;;;;;;16.56;48.15;101353.83;1814512;77;21152;-59
2021/10/01 02:17:13;;;;;;;7.15;6.45;;;;;;;16.56;48.13;101354.34;1816247;77;21009;-60
2021/10/01 02:19:42;;;;;;;6.72;6.10;;;;;;;16.56;48.13;101361.88;1802804;78;21508;-60
2021/10/01 02:22:10;;;;;;;6.85;6.25;;;;;;;16.54;48.13;101358.53;1813733;77;21087;-60
2021/10/01 02:24:38;;;;;;;7.10;6.47;;;;;;;16.53;48.13;101355.50;1803923;77;21029;-61
2021/10/01 02:27:23;;;;;;;6.75;6.05;;;;;;;16.53;48.11;101360.03;1831340;76;21112;-59
2021/10/01 02:29:56;;;;;;;7.37;6.08;;;;;;;16.51;48.12;101358.85;1790854;77;21000;-60
2021/10/01 02:32:36;;;;;;;7.20;6.55;;;;;;;16.50;48.11;101359.36;1818853;77;21021;-60
2021/10/01 02:35:04;;;;;;;6.90;6.20;;;;;;;16.50;48.12;101358.53;1793461;77;21138;-60
2021/10/01 02:37:32;;;;;;;7.58;6.87;;;;;;;16.47;48.11;101358.86;1826765;77;22056;-60
2021/10/01 02:40:00;;;;;;;7.45;6.70;;;;;;;16.47;48.13;101354.83;1803605;78;21311;-61
2021/10/01 02:42:29;;;;;;;7.25;6.33;;;;;;;16.45;48.10;101361.70;1786890;77;21109;-60
2021/10/01 02:44:57;;;;;;;7.55;6.45;;;;;;;16.45;48.13;101366.23;1821103;77;21038;-61
2021/10/01 02:47:29;;;;;;;7.37;6.67;;;;;;;16.44;48.11;101368.59;1786590;79;20980;-59
2021/10/01 02:49:59;;;;;;;7.70;6.92;;;;;;;16.43;48.10;101362.88;1812453;77;21517;-60
2021/10/01 02:53:03;;;;;;;8.88;6.97;;;;;;;16.43;48.10;101370.42;1800642;77;21123;-62
2021/10/01 02:56:07;;;;;;;7.28;6.40;;;;;;;16.41;48.11;101371.09;1799525;77;21702;-61
2021/10/01 02:58:43;;;;;;;7.40;6.67;;;;;;;16.40;48.13;101373.93;1771639;79;21179;-60
2021/10/01 03:01:11;;;;;;;8.03;6.60;;;;;;;16.37;48.15;101371.59;1776674;79;21044;-60
2021/10/01 03:03:43;;;;;;;8.38;6.50;;;;;;;16.36;48.18;101379.30;1798062;77;21041;-59
2021/10/01 03:06:10;;;;;;;7.62;6.92;;;;;;;16.34;48.16;101370.58;1828877;77;21124;-59
2021/10/01 03:08:37;;;;;;;7.80;7.03;;;;;;;16.33;48.17;101368.41;1812759;77;21120;-60
2021/10/01 03:11:12;;;;;;;7.42;6.72;;;;;;;16.34;48.20;101368.76;1805564;77;21002;-60
2021/10/01 03:13:44;;;;;;;8.55;6.53;;;;;;;16.33;48.17;101369.75;1814831;77;21015;-60
2021/10/01 03:16:11;;;;;;;8.33;6.70;;;;;;;16.32;48.15;101365.37;1809305;77;21036;-60
2021/10/01 03:18:38;;;;;;;7.55;6.85;;;;;;;16.31;48.18;101371.77;1805564;77;21119;-60
2021/10/01 03:21:06;;;;;;;7.62;6.78;;;;;;;16.29;48.16;101370.58;1821699;77;21005;-59
2021/10/01 03:23:36;;;;;;;8.03;7.22;;;;;;;16.30;48.16;101374.95;1807828;77;21034;-60
2021/10/01 03:26:03;;;;;;;7.40;6.60;;;;;;;16.29;48.18;101373.26;1820699;77;21155;-59
2021/10/01 03:28:31;;;;;;;8.30;7.50;;;;;;;16.29;48.15;101369.23;1828956;77;21069;-61
2021/10/01 03:30:57;;;;;;;7.95;5.97;;;;;;;16.29;48.16;101369.75;1826001;77;21158;-61
2021/10/01 03:33:27;;;;;;;9.90;7.10;;;;;;;16.28;48.13;101369.40;1812078;76;21092;-60
2021/10/01 03:35:55;;;;;;;7.35;6.62;;;;;;;16.27;48.14;101368.56;1810127;77;21521;-59
2021/10/01 03:38:27;;;;;;;7.83;6.80;;;;;;;16.27;48.13;101371.25;1820512;77;21552;-59
2021/10/01 03:40:52;;;;;;;8.00;7.20;;;;;;;16.27;48.13;101377.13;1827611;77;21034;-60
2021/10/01 03:43:24;;;;;;;7.92;7.12;;;;;;;16.25;48.12;101375.94;1830881;77;21080;-60
2021/10/01 03:45:49;;;;;;;7.95;6.95;;;;;;;16.26;48.11;101378.11;1826835;76;21108;-60
2021/10/01 03:48:19;;;;;;;7.42;6.72;;;;;;;16.24;48.12;101377.44;1828078;77;21513;-60
2021/10/01 03:51:01;;;;;;;7.72;6.72;;;;;;;16.23;48.10;101383.31;1811933;77;21013;-61
2021/10/01 03:53:29;;;;;;;7.10;6.37;;;;;;;16.21;48.11;101385.32;1829473;77;21072;-60
2021/10/01 03:55:55;;;;;;;7.42;6.72;;;;;;;16.21;48.13;101390.69;1836439;77;21125;-59
2021/10/01 03:58:23;;;;;;;9.35;7.45;;;;;;;16.21;48.11;101389.85;1817531;77;21468;-61
2021/10/01 04:00:50;;;;;;;7.70;6.97;;;;;;;16.20;48.11;101392.19;1813921;77;21080;-60
2021/10/01 04:03:17;;;;;;;7.53;6.70;;;;;;;16.19;48.11;101395.38;1811807;78;21037;-62
2021/10/01 04:05:46;;;;;;;9.93;6.78;;;;;;;16.19;48.12;101395.88;1816865;77;21034;-60
2021/10/01 04:08:13;;;;;;;7.67;6.97;;;;;;;16.18;48.12;101392.34;1817999;77;21019;-60
2021/10/01 04:10:43;;;;;;;8.15;7.37;;;;;;;16.17;48.10;101394.70;1812232;77;21060;-59
2021/10/01 04:13:10;;;;;;;8.85;7.58;;;;;;;16.17;48.11;101393.84;1811877;76;21075;-60
2021/10/01 04:15:45;;;;;;;8.63;7.53;;;;;;;16.16;48.11;101398.38;1821697;77;21040;-60
2021/10/01 04:18:12;;;;;;;8.00;6.83;;;;;;;16.15;48.10;101396.71;1810936;78;20986;-59
2021/10/01 04:20:43;;;;;;;7.72;6.95;;;;;;;16.15;48.11;101399.39;1826635;77;21481;-62
2021/10/01 04:23:20;;;;;;;9.68;7.33;;;;;;;16.14;48.09;101402.23;1822021;77;21540;-60
2021/10/01 04:25:53;;;;;;;10.23;8.10;;;;;;;16.15;48.09;101398.53;1795671;77;21485;-60
2021/10/01 04:28:22;;;;;;;7.85;7.15;;;;;;;16.13;48.09;101398.72;1829829;76;21505;-60
2021/10/01 04:30:51;;;;;;;8.08;7.28;;;;;;;16.12;48.09;101399.20;1827418;77;21049;-60
2021/10/01 04:33:22;;;;;;;7.97;7.17;;;;;;;16.13;48.09;101400.06;1820789;77;21736;-60
2021/10/01 04:35:49;;;;;;;7.85;7.00;;;;;;;16.13;48.08;101396.04;1809301;77;21083;-60
2021/10/01 04:38:17;;;;;;;7.53;6.83;;;;;;;16.14;48.07;101402.23;1826762;77;21462;-61
2021/10/01 04:40:44;;;;;;;7.97;7.17;;;;;;;16.13;48.07;101401.40;1824751;77;21030;-59
2021/10/01 04:43:11;;;;;;;8.13;6.87;;;;;;;16.13;48.05;101404.08;1833105;77;21001;-59
2021/10/01 04:45:39;;;;;;;8.48;7.55;;;;;;;16.13;48.03;101409.44;1834158;76;21114;-60
2021/10/01 04:48:06;;;;;;;9.13;6.90;;;;;;;16.13;48.02;101406.77;1841414;77;21517;-61
2021/10/01 04:50:34;;;;;;;7.70;6.78;;;;;;;16.14;48.01;101410.27;1822296;77;21013;-60
2021/10/01 04:53:00;;;;;;;8.10;6.95;;;;;;;16.15;48.02;101414.61;1835608;77;21017;-60
2021/10/01 04:55:27;;;;;;;7.80;7.00;;;;;;;16.13;48.01;101406.77;1832967;77;21099;-60
2021/10/01 04:57:55;;;;;;;8.73;6.97;;;;;;;16.14;47.99;101412.45;1826082;77;22545;-60
2021/10/01 05:00:40;;;;;;;8.25;7.25;;;;;;;16.15;47.99;101415.95;1841014;77;21024;-60
2021/10/01 05:03:25;;;;;;;7.40;6.67;;;;;;;16.15;47.99;101421.32;1818482;77;21578;-59
2021/10/01 05:06:02;;;;;;;8.45;7.60;;;;;;;16.13;47.99;101424.19;1826648;76;20993;-59
2021/10/01 05:08:47;;;;;;;9.45;7.47;;;;;;;16.12;48.00;101417.97;1825479;77;21048;-60
2021/10/01 05:11:32;;;;;;;9.18;7.75;;;;;;;16.14;48.02;101426.36;1719082;83;21021;-62
2021/10/01 05:14:12;;;;;;;11.30;7.60;;;;;;;16.13;48.00;101429.55;1755184;78;21564;-61
2021/10/01 05:16:57;;;;;;;10.40;7.08;;;;;;;16.14;48.01;101426.36;1828225;77;21603;-60
2021/10/01 05:19:42;;;;;;;8.65;7.40;;;;;;;16.15;48.03;101426.20;1811030;77;21022;-59
2021/10/01 05:22:13;;;;;;;10.43;7.78;;;;;;;16.16;48.01;101433.73;1822593;77;21040;-61
2021/10/01 05:24:40;;;;;;;8.23;7.00;;;;;;;16.16;48.01;101430.55;1803369;78;21129;-60
2021/10/01 05:27:09;;;;;;;7.15;6.37;;;;;;;16.18;48.03;101431.73;1804361;77;21065;-60
2021/10/01 05:29:36;;;;;;;7.97;7.10;;;;;;;16.19;48.01;101431.57;1818364;77;21001;-61
2021/10/01 05:32:06;;;;;;;9.53;7.40;;;;;;;16.21;47.99;101434.92;1826791;77;20978;-61
2021/10/01 05:34:34;;;;;;;7.80;6.55;;;;;;;16.22;47.96;101435.25;1804984;77;21037;-60
2021/10/01 05:37:03;;;;;;;7.92;7.12;;;;;;;16.24;47.95;101429.22;1814091;78;21042;-60
2021/10/01 05:39:30;;;;;;;8.08;7.22;;;;;;;16.26;47.93;101436.63;1785693;78;21544;-60
2021/10/01 05:41:57;;;;;;;8.45;7.03;;;;;;;16.29;47.91;101436.28;1793591;79;21013;-60
2021/10/01 05:44:25;;;;;;;7.55;6.60;;;;;;;16.31;47.89;101440.14;1805044;78;21020;-61
2021/10/01 05:46:52;;;;;;;7.72;7.03;;;;;;;16.27;47.87;101434.27;1780627;79;21515;-62
2021/10/01 05:49:39;;;;;;;9.08;7.03;;;;;;;16.37;47.83;101446.70;1797789;77;21188;-62
2021/10/01 05:52:27;;;;;;;8.08;7.20;;;;;;;16.39;47.78;101451.39;1805112;76;21072;-62
2021/10/01 05:55:11;;;;;;;7.87;7.05;;;;;;;16.40;47.77;101449.03;1791371;77;21014;-62
2021/10/01 05:57:56;;;;;;;7.37;6.67;;;;;;;16.41;47.75;101442.17;1789710;79;21054;-62
2021/10/01 06:00:24;;;;;;;8.38;7.00;;;;;;;16.43;47.74;101450.05;1795451;78;21072;-62
2021/10/01 06:02:52;;;;;;;8.00;7.20;;;;;;;16.45;47.72;101452.90;1805455;78;21118;-63
2021/10/01 06:05:18;;;;;;;7.47;6.67;;;;;;;16.48;47.70;101450.41;1797324;78;21061;-64
2021/10/01 06:07:46;;;;;;;7.42;6.72;;;;;;;16.50;47.69;101451.08;1819940;77;21006;-62
2021/10/01 06:10:14;;;;;;;7.37;6.67;;;;;;;16.53;47.64;101450.73;1799289;77;21069;-63
2021/10/01 06:12:42;;;;;;;7.35;6.55;;;;;;;16.51;47.63;101446.03;1818394;77;21093;-62
2021/10/01 06:15:09;;;;;;;8.30;7.12;;;;;;;16.57;47.61;101453.42;1781952;76;21739;-62
2021/10/01 06:17:37;;;;;;;7.80;6.45;;;;;;;16.59;47.56;101448.75;1815761;77;21055;-61
2021/10/01 06:20:06;;;;;;;7.83;7.03;;;;;;;16.62;47.52;101453.77;1814188;78;21285;-61
2021/10/01 06:22:33;;;;;;;7.42;6.75;;;;;;;16.64;47.51;101453.61;1805248;77;20967;-61
2021/10/01 06:24:59;;;;;;;8.93;6.60;;;;;;;16.67;47.51;101462.69;1813442;79;20982;-61
2021/10/01 06:27:25;;;;;;;8.03;6.80;;;;;;;16.69;47.47;101461.50;1793332;77;22906;-61
2021/10/01 06:29:54;;;;;;;6.80;6.20;;;;;;;16.71;47.44;101451.44;1827262;77;21041;-63
2021/10/01 06:32:20;;;;;;;7.25;6.55;;;;;;;16.75;47.41;101457.83;1808671;76;21005;-60
2021/10/01 06:34:47;;;;;;;8.05;6.60;;;;;;;16.77;47.40;101460.67;1809571;77;21470;-61
2021/10/01 06:37:13;;;;;;;6.87;6.20;;;;;;;16.79;47.37;101465.36;1809222;77;21017;-62
2021/10/01 06:39:40;;;;;;;6.70;6.03;;;;;;;16.82;47.35;101460.19;1816487;77;21485;-62
2021/10/01 06:42:06;;;;;;;7.33;6.58;;;;;;;16.85;47.32;101469.26;1811355;77;21037;-62
2021/10/01 06:44:34;;;;;;;6.87;6.28;;;;;;;16.88;47.28;101462.20;1812134;77;21076;-62
2021/10/01 06:49:48;;;;;;;8.20;6.40;;;;;;;16.93;47.22;101463.05;1788808;77;21041;-63
2021/10/01 06:52:48;;;;;;;7.50;6.58;;;;;;;16.96;47.20;101472.95;1801473;77;21213;-63
2021/10/01 08:19:43;;;;;;;4.90;4.40;;;;;;;17.86;46.30;101453.98;1794205;78;21457;-62
2021/10/01 08:22:12;;;;;;;5.87;5.37;;;;;;;17.90;46.25;101456.33;1798128;77;21022;-62
2021/10/01 08:24:39;;;;;;;10.80;7.50;;;;;;;17.94;46.23;101454.97;1801630;77;21107;-65
2021/10/01 08:27:06;;;;;;;10.23;7.22;;;;;;;17.98;49.56;101431.61;1824417;76;21001;-61
2021/10/01 08:29:33;;;;;;;11.45;7.30;;;;;;;18.11;58.10;101458.42;1828045;77;20972;-63
2021/10/01 08:32:02;;;;;;;8.30;6.67;;;;;;;18.25;59.04;101458.52;1809771;77;21041;-62
2021/10/01 08:34:33;;;;;;;7.97;6.40;;;;;;;18.36;57.71;101458.61;1799750;77;21065;-63
2021/10/01 08:37:00;;;;;;;8.68;7.10;;;;;;;18.46;57.48;101450.30;1746958;80;21049;-63
2021/10/01 08:39:27;;;;;;;8.85;6.35;;;;;;;18.53;56.98;101451.27;1742300;82;21143;-63
2021/10/01 08:41:56;;;;;;;8.55;6.47;;;;;;;18.60;56.41;101448.20;1728130;81;21006;-64
2021/10/01 08:44:27;;;;;;;11.10;6.58;;;;;;;18.67;55.96;101449.66;1729626;82;21014;-62
2021/10/01 08:46:54;;;;;;;8.65;6.17;;;;;;;18.73;55.52;101449.45;1755685;80;21025;-63
2021/10/01 08:49:20;;;;;;;9.08;6.55;;;;;;;18.79;55.04;101452.24;1754137;80;21045;-64
2021/10/01 08:51:47;;;;;;;8.95;6.72;;;;;;;18.87;54.63;101448.67;1772719;80;21905;-64
2021/10/01 08:54:15;;;;;;;9.40;6.08;;;;;;;18.94;54.24;101448.29;1750628;81;21504;-63
2021/10/01 08:56:41;;;;;;;6.67;5.97;;;;;;;19.02;53.90;101446.03;1756914;79;20995;-63
2021/10/01 08:59:07;;;;;;;8.10;6.03;;;;;;;19.08;53.56;101443.95;1759709;79;21772;-63
2021/10/01 09:01:34;;;;;;;8.23;6.08;;;;;;;19.16;53.17;101442.55;1758066;80;21050;-62
2021/10/01 09:04:03;;;;;;;9.53;5.92;;;;;;;19.24;52.79;101438.42;1763757;79;21577;-62
2021/10/01 09:06:29;;;;;;;7.12;6.12;;;;;;;19.32;52.42;101442.06;1751518;79;21049;-61
2021/10/01 09:08:59;;;;;;;7.80;5.28;;;;;;;19.41;52.08;101446.32;1759245;81;21561;-62
2021/10/01 09:11:29;;;;;;;6.87;5.53;;;;;;;19.50;51.70;101447.08;1757491;79;21062;-63
2021/10/01 09:13:55;;;;;;;8.80;5.83;;;;;;;19.58;51.34;101453.20;1765303;79;20993;-62
2021/10/01 09:16:22;;;;;;;7.03;4.92;;;;;;;19.68;50.99;101453.44;1749821;80;21140;-64
2021/10/01 09:18:49;;;;;;;7.37;5.65;;;;;;;19.76;50.68;101447.48;1746820;80;22036;-64
2021/10/01 09:21:19;;;;;;;8.25;5.42;;;;;;;19.86;50.37;101451.73;1767093;81;21644;-66
2021/10/01 09:24:03;;;;;;;6.35;5.50;;;;;;;19.94;50.06;101448.43;1762402;80;21044;-64
2021/10/01 09:26:33;;;;;;;6.87;4.83;;;;;;;20.04;49.79;101442.74;1735353;80;21088;-64
2021/10/01 09:29:07;;;;;;;6.25;5.47;;;;;;;20.14;49.48;101448.66;1738716;81;21534;-65
2021/10/01 09:31:49;;;;;;;8.00;5.85;;;;;;;20.24;49.23;101451.05;1759568;79;21006;-66
2021/10/01 09:34:27;;;;;;;7.00;5.45;;;;;;;20.33;48.97;101443.17;1735380;81;21029;-65
2021/10/01 09:37:05;;;;;;;5.83;4.85;;;;;;;20.44;48.69;101439.15;1753822;81;21005;-66
2021/10/01 09:39:38;;;;;;;6.15;5.08;;;;;;;20.53;48.47;101442.54;1760630;80;21554;-64
2021/10/01 09:42:27;;;;;;;6.30;5.12;;;;;;;20.60;48.26;101436.20;1754061;79;21160;-63
2021/10/01 09:45:01;;;;;;;7.37;5.35;;;;;;;20.74;48.05;101441.73;1758748;80;21037;-64
2021/10/01 09:47:33;;;;;;;7.37;5.97;;;;;;;20.86;49.71;101429.89;1764428;80;21034;-62
2021/10/01 09:50:03;;;;;;;6.00;4.25;;;;;;;20.98;49.84;101427.00;1760849;80;21113;-62
2021/10/01 09:52:51;;;;;;;7.00;4.67;;;;;;;21.09;49.46;101431.02;1768194;80;21608;-63
2021/10/01 09:55:22;;;;;;;9.00;5.35;;;;;;;21.19;49.06;101426.94;1775303;80;21502;-63
2021/10/01 09:58:11;;;;;;;5.42;4.62;;;;;;;21.30;48.70;101426.89;1760836;80;21033;-62
2021/10/01 10:00:48;;;;;;;5.72;4.55;;;;;;;21.42;48.40;101427.17;1745659;80;21100;-63
2021/10/01 10:03:25;;;;;;;6.15;4.25;;;;;;;21.53;48.08;101416.36;1755398;80;21579;-63
2021/10/01 10:06:06;;;;;;;5.78;4.40;;;;;;;21.65;47.78;101421.50;1776477;79;21053;-64
2021/10/01 10:08:38;;;;;;;8.03;5.00;;;;;;;21.76;47.53;101408.77;1773888;80;21162;-64
2021/10/01 10:11:07;;;;;;;;;;;;;;;21.88;47.28;101417.66;1780670;80;21058;-63
2021/10/01 10:13:52;;;;;;;6.90;4.67;;;;;;;21.98;47.01;101408.14;1767688;80;20315;-62
2021/10/01 10:16:24;;;;;;;6.62;4.50;;;;;;;22.08;46.84;101409.61;1755864;80;21042;-62
2021/10/01 10:19:00;;;;;;;4.97;4.47;;;;;;;22.18;46.62;101405.48;1759382;80;21093;-62
2021/10/01 10:21:28;;;;;;;5.05;3.92;;;;;;;22.30;46.38;101402.21;1767709;80;21065;-61
2021/10/01 10:23:56;;;;;;;6.08;4.55;;;;;;;22.43;46.17;101404.12;1770967;79;21083;-61
2021/10/01 10:26:24;;;;;;;5.20;4.25;;;;;;;22.53;45.98;101397.23;1760219;80;21036;-61
2021/10/01 10:28:54;;;;;;;5.25;3.98;;;;;;;22.63;45.82;101398.19;1770281;79;21042;-62
2021/10/01 10:31:24;;;;;;;4.22;3.83;;;;;;;22.74;45.61;101400.27;1772065;79;21541;-63
2021/10/01 10:33:52;;;;;;;4.92;4.22;;;;;;;22.88;45.46;101401.62;1725980;80;21154;-62
2021/10/01 10:36:41;;;;;;;5.47;4.17;;;;;;;22.97;45.26;101392.25;1739202;80;21009;-63
2021/10/01 10:39:17;;;;;;;4.95;3.83;;;;;;;23.10;45.07;101394.12;1761762;81;21038;-61
2021/10/01 10:42:01;;;;;;;5.35;4.85;;;;;;;23.22;44.88;101391.59;1749536;81;21051;-61
2021/10/01 10:44:59;;;;;;;5.97;4.50;;;;;;;23.32;44.71;101395.55;1781207;79;21087;-62
2021/10/01 10:47:43;;;;;;;4.72;4.05;;;;;;;23.45;44.55;101393.33;1768421;80;21533;-62
2021/10/01 10:50:30;;;;;;;4.37;3.83;;;;;;;23.57;44.37;101386.71;1770357;79;20957;-64
2021/10/01 10:53:13;;;;;;;4.15;3.47;;;;;;;23.68;44.19;101388.77;1780598;79;21003;-64
2021/10/01 10:56:00;;;;;;;4.08;3.65;;;;;;;23.80;44.03;101384.02;1779653;79;21044;-63
2021/10/01 10:58:35;;;;;;;4.15;3.75;;;;;;;23.92;43.85;101379.59;1765540;79;21113;-62
2021/10/01 11:01:23;;;;;;;4.22;3.83;;;;;;;24.04;43.70;101383.27;1776511;79;21104;-64
2021/10/01 11:04:18;;;;;;;4.47;3.62;;;;;;;24.16;43.56;101384.77;1811338;77;21026;-62
2021/10/01 11:06:44;;;;;;;4.15;3.75;;;;;;;24.29;43.38;101378.43;1820812;78;21576;-63
2021/10/01 11:09:26;;;;;;;3.65;3.27;;;;;;;24.41;43.22;101372.59;1822896;78;21162;-63
2021/10/01 11:11:57;;;;;;;4.95;4.20;;;;;;;24.51;43.09;101358.03;1814727;78;21027;-61
2021/10/01 11:14:23;;;;;;;4.35;3.95;;;;;;;24.63;42.94;101365.47;1804407;78;21158;-62
2021/10/01 11:17:02;;;;;;;4.62;4.03;;;;;;;24.75;42.81;101365.04;1802141;78;21492;-61
2021/10/01 11:19:47;;;;;;;4.40;4.00;;;;;;;24.85;42.68;101355.02;1796124;77;21606;-62
2021/10/01 11:22:38;;;;;;;4.03;3.62;;;;;;;24.97;42.49;101351.03;1814976;77;21027;-62
2021/10/01 11:25:20;;;;;;;5.10;3.90;;;;;;;25.08;42.39;101351.11;1807052;78;21072;-62
2021/10/01 11:27:58;;;;;;;4.40;3.70;;;;;;;25.21;42.24;101353.41;1792733;78;21028;-62
2021/10/01 11:30:26;;;;;;;4.08;3.67;;;;;;;25.31;42.13;101349.66;1823517;77;21037;-62
2021/10/01 11:32:53;;;;;;;4.00;3.60;;;;;;;25.44;41.97;101347.28;1807051;78;21033;-62
2021/10/01 11:35:20;;;;;;;4.00;3.58;;;;;;;25.54;41.80;101344.05;1810835;78;21029;-60
2021/10/01 11:37:50;;;;;;;3.42;3.12;;;;;;;25.66;41.64;101351.73;1805185;77;20986;-60
2021/10/01 11:40:24;;;;;;;4.00;3.30;;;;;;;25.78;41.51;101348.52;1810309;77;21138;-62
2021/10/01 11:42:54;;;;;;;3.45;3.15;;;;;;;25.89;41.35;101345.56;1800758;77;21076;-62
2021/10/01 11:45:29;;;;;;;4.05;3.65;;;;;;;26.02;41.18;101340.47;1784022;77;21046;-63
2021/10/01 11:48:07;;;;;;;3.98;3.55;;;;;;;26.14;41.04;101340.53;1783245;79;21286;-63
2021/10/01 11:50:43;;;;;;;3.47;3.17;;;;;;;26.26;40.83;101329.94;1796255;77;21096;-63
2021/10/01 11:56:03;;;;;;;3.25;2.92;;;;;;;26.60;40.32;101325.34;1801202;78;22674;-62
2021/10/01 11:58:33;;;;;;;3.50;3.20;;;;;;;26.71;40.17;101325.86;1761003;80;21599;-64
2021/10/01 12:01:17;;;;;;;4.08;3.60;;;;;;;26.96;39.85;101323.42;1785377;78;23281;-61
2021/10/01 12:03:55;;;;;;;3.33;2.90;;;;;;;27.30;39.42;101319.55;1757593;80;20962;-62
2021/10/01 12:06:27;;;;;;;3.20;2.90;;;;;;;27.79;38.78;101319.41;1777374;79;21061;-62
2021/10/01 12:09:05;;;;;;;3.75;3.45;;;;;;;28.30;38.11;101314.56;1776093;79;21037;-61
2021/10/01 12:11:36;;;;;;;3.42;3.12;;;;;;;28.75;37.51;101313.12;1764891;80;21100;-58
2021/10/01 12:14:14;;;;;;;3.65;3.27;;;;;;;29.19;36.92;101304.17;1769545;78;21101;-60
2021/10/01 12:16:58;;;;;;;3.52;3.22;;;;;;;29.58;36.37;101302.70;1764433;79;21580;-61
2021/10/01 12:19:25;;;;;;;3.50;3.20;;;;;;;29.98;35.80;101292.72;1759896;80;20990;-62
2021/10/01 12:22:12;;;;;;;4.03;2.85;;;;;;;30.33;35.23;101297.41;1766874;79;21013;-60
2021/10/01 12:24:50;;;;;;;3.30;3.00;;;;;;;30.61;34.79;101293.48;1760984;80;21104;-61
2021/10/01 12:27:18;;;;;;;3.47;3.10;;;;;;;30.88;34.38;101289.23;1781135;79;21150;-61
2021/10/01 12:29:48;;;;;;;2.85;2.60;;;;;;;31.06;34.12;101292.11;1768480;79;21029;-61
2021/10/01 12:32:17;;;;;;;2.98;2.72;;;;;;;31.05;34.06;101290.45;1756406;80;21029;-62
2021/10/01 12:34:58;;;;;;;3.40;3.10;;;;;;;30.96;34.09;101287.93;1763591;78;21033;-61
2021/10/01 12:37:33;;;;;;;3.12;2.83;;;;;;;30.79;34.20;101290.86;1762559;80;21037;-61
2021/10/01 12:40:03;;;;;;;3.00;2.80;;;;;;;30.58;34.39;101283.05;1746768;81;21006;-62
2021/10/01 12:42:36;;;;;;;2.90;2.60;;;;;;;30.42;34.60;101282.10;1766228;80;21088;-60
2021/10/01 12:45:13;;;;;;;3.33;2.70;;;;;;;30.29;34.82;101277.89;1707788;83;21592;-62
2021/10/01 12:47:43;;;;;;;3.50;3.00;;;;;;;30.17;34.97;101282.71;1715812;82;21101;-60
2021/10/01 12:50:15;;;;;;;2.85;2.65;;;;;;;30.10;35.14;101271.17;1738652;81;21677;-62
2021/10/01 12:52:45;;;;;;;3.33;2.98;;;;;;;30.07;35.27;101270.31;1721902;83;21104;-67
2021/10/01 12:55:15;;;;;;;2.90;2.70;;;;;;;30.11;35.34;101279.66;1728264;81;21054;-65
2021/10/01 12:57:48;;;;;;;2.72;2.52;;;;;;;30.22;35.25;101274.54;1757769;79;21358;-66
2021/10/01 13:00:37;;;;;;;2.65;2.45;;;;;;;30.37;35.10;101274.69;1761507;79;21548;-67
2021/10/01 13:03:06;;;;;;;2.75;2.55;;;;;;;30.54;34.93;101268.23;1751614;79;21043;-65
2021/10/01 13:05:38;;;;;;;3.00;2.50;;;;;;;30.74;34.73;101262.84;1752980;79;21114;-63
2021/10/01 13:08:17;;;;;;;3.17;2.97;;;;;;;30.92;34.51;101270.36;1758469;80;21645;-61
2021/10/01 13:10:48;;;;;;;;;;;;;;;31.10;34.31;101267.67;1770358;80;21001;-58
2021/10/01 13:13:16;;;;;;;4.60;4.07;;;;;;;31.21;34.39;101266.63;1755346;80;20602;-67
2021/10/01 13:15:51;;;;;;;6.28;4.17;;;;;;;31.18;34.19;101266.33;1755267;80;21051;-66
2021/10/01 13:21:19;;;;;;;5.08;4.40;;;;;;;31.12;32.19;101267.70;1755262;80;21046;-62